sensor_id;sensor_type;location;lat;lon;timestamp;P1;durP1;ratioP1;P2;durP2;ratioP2
25237;SDS011;13185;50.872;5.306;2022-12-07T00:00:16;12.00;;;8.75;;
25237;SDS011;13185;50.872;5.306;2022-12-07T00:02:41;11.90;;;9.77;;
25237;SDS011;13185;50.872;5.306;2022-12-07T00:05:07;13.10;;;9.63;;
25237;SDS011;13185;50.872;5.306;2022-12-07T00:07:32;16.33;;;9.45;;
25237;SDS011;13185;50.872;5.306;2022-12-07T00:09:58;14.55;;;9.60;;
25237;SDS011;13185;50.872;5.306;2022-12-07T00:12:23;16.92;;;9.63;;
25237;SDS011;13185;50.872;5.306;2022-12-07T00:14:49;15.55;;;9.15;;
25237;SDS011;13185;50.872;5.306;2022-12-07T00:17:14;13.68;;;9.43;;
25237;SDS011;13185;50.872;5.306;2022-12-07T00:19:40;12.13;;;9.05;;
25237;SDS011;13185;50.872;5.306;2022-12-07T00:22:05;15.10;;;9.25;;
25237;SDS011;13185;50.872;5.306;2022-12-07T00:24:30;14.63;;;9.35;;
25237;SDS011;13185;50.872;5.306;2022-12-07T00:26:56;16.85;;;9.57;;
25237;SDS011;13185;50.872;5.306;2022-12-07T00:29:21;16.85;;;9.90;;
25237;SDS011;13185;50.872;5.306;2022-12-07T00:31:48;13.48;;;9.60;;
25237;SDS011;13185;50.872;5.306;2022-12-07T00:34:15;13.02;;;10.27;;
25237;SDS011;13185;50.872;5.306;2022-12-07T00:36:44;13.93;;;9.43;;
25237;SDS011;13185;50.872;5.306;2022-12-07T00:39:10;11.65;;;9.40;;
25237;SDS011;13185;50.872;5.306;2022-12-07T00:41:36;14.38;;;9.50;;
25237;SDS011;13185;50.872;5.306;2022-12-07T00:44:01;16.48;;;9.05;;
25237;SDS011;13185;50.872;5.306;2022-12-07T00:46:27;15.13;;;9.87;;
25237;SDS011;13185;50.872;5.306;2022-12-07T00:48:53;12.93;;;9.43;;
25237;SDS011;13185;50.872;5.306;2022-12-07T00:51:20;15.57;;;9.93;;
25237;SDS011;13185;50.872;5.306;2022-12-07T00:53:47;13.13;;;9.83;;
25237;SDS011;13185;50.872;5.306;2022-12-07T00:56:14;13.02;;;9.38;;
25237;SDS011;13185;50.872;5.306;2022-12-07T00:58:44;12.23;;;9.47;;
25237;SDS011;13185;50.872;5.306;2022-12-07T01:01:15;12.83;;;9.93;;
25237;SDS011;13185;50.872;5.306;2022-12-07T01:03:40;14.15;;;9.43;;
25237;SDS011;13185;50.872;5.306;2022-12-07T01:06:06;14.77;;;9.77;;
25237;SDS011;13185;50.872;5.306;2022-12-07T01:08:32;13.47;;;10.27;;
25237;SDS011;13185;50.872;5.306;2022-12-07T01:10:58;15.80;;;10.10;;
25237;SDS011;13185;50.872;5.306;2022-12-07T01:13:29;15.45;;;10.15;;
25237;SDS011;13185;50.872;5.306;2022-12-07T01:15:57;14.00;;;9.70;;
25237;SDS011;13185;50.872;5.306;2022-12-07T01:18:25;13.10;;;9.65;;
25237;SDS011;13185;50.872;5.306;2022-12-07T01:20:58;16.07;;;9.67;;
25237;SDS011;13185;50.872;5.306;2022-12-07T01:23:32;17.17;;;10.57;;
25237;SDS011;13185;50.872;5.306;2022-12-07T01:26:00;16.83;;;9.98;;
25237;SDS011;13185;50.872;5.306;2022-12-07T01:28:27;15.45;;;10.80;;
25237;SDS011;13185;50.872;5.306;2022-12-07T01:30:59;13.50;;;9.90;;
25237;SDS011;13185;50.872;5.306;2022-12-07T01:33:26;16.58;;;10.75;;
25237;SDS011;13185;50.872;5.306;2022-12-07T01:35:53;14.93;;;9.83;;
25237;SDS011;13185;50.872;5.306;2022-12-07T01:38:19;12.80;;;9.88;;
25237;SDS011;13185;50.872;5.306;2022-12-07T01:40:45;16.45;;;9.50;;
25237;SDS011;13185;50.872;5.306;2022-12-07T01:43:14;13.38;;;9.77;;
25237;SDS011;13185;50.872;5.306;2022-12-07T01:45:42;15.13;;;9.80;;
25237;SDS011;13185;50.872;5.306;2022-12-07T01:48:08;15.85;;;9.57;;
25237;SDS011;13185;50.872;5.306;2022-12-07T01:50:36;12.98;;;9.82;;
25237;SDS011;13185;50.872;5.306;2022-12-07T01:53:05;14.45;;;9.85;;
25237;SDS011;13185;50.872;5.306;2022-12-07T01:55:34;15.25;;;9.00;;
25237;SDS011;13185;50.872;5.306;2022-12-07T01:58:02;18.42;;;9.80;;
25237;SDS011;13185;50.872;5.306;2022-12-07T02:00:28;11.80;;;9.47;;
25237;SDS011;13185;50.872;5.306;2022-12-07T02:02:55;16.40;;;9.43;;
25237;SDS011;13185;50.872;5.306;2022-12-07T02:05:29;15.02;;;10.02;;
25237;SDS011;13185;50.872;5.306;2022-12-07T02:07:55;15.90;;;10.53;;
25237;SDS011;13185;50.872;5.306;2022-12-07T02:10:24;14.13;;;9.50;;
25237;SDS011;13185;50.872;5.306;2022-12-07T02:12:54;18.27;;;9.90;;
25237;SDS011;13185;50.872;5.306;2022-12-07T02:15:40;14.10;;;9.43;;
25237;SDS011;13185;50.872;5.306;2022-12-07T02:20:39;12.67;;;10.17;;
25237;SDS011;13185;50.872;5.306;2022-12-07T02:31:37;13.93;;;9.93;;
25237;SDS011;13185;50.872;5.306;2022-12-07T02:34:12;15.10;;;10.75;;
25237;SDS011;13185;50.872;5.306;2022-12-07T02:36:57;14.35;;;10.15;;
25237;SDS011;13185;50.872;5.306;2022-12-07T02:39:31;15.15;;;10.90;;
25237;SDS011;13185;50.872;5.306;2022-12-07T02:42:09;14.57;;;10.18;;
25237;SDS011;13185;50.872;5.306;2022-12-07T02:44:41;18.40;;;10.80;;
25237;SDS011;13185;50.872;5.306;2022-12-07T02:47:08;13.80;;;10.83;;
25237;SDS011;13185;50.872;5.306;2022-12-07T02:49:37;14.37;;;10.93;;
25237;SDS011;13185;50.872;5.306;2022-12-07T02:52:05;15.37;;;10.20;;
25237;SDS011;13185;50.872;5.306;2022-12-07T02:54:30;17.27;;;11.20;;
25237;SDS011;13185;50.872;5.306;2022-12-07T02:56:58;17.17;;;10.38;;
25237;SDS011;13185;50.872;5.306;2022-12-07T02:59:29;14.35;;;10.32;;
25237;SDS011;13185;50.872;5.306;2022-12-07T03:16:11;13.97;;;10.17;;
25237;SDS011;13185;50.872;5.306;2022-12-07T03:21:26;17.02;;;11.02;;
25237;SDS011;13185;50.872;5.306;2022-12-07T03:23:56;21.25;;;10.55;;
25237;SDS011;13185;50.872;5.306;2022-12-07T03:26:28;14.57;;;10.80;;
25237;SDS011;13185;50.872;5.306;2022-12-07T03:29:00;16.75;;;10.52;;
25237;SDS011;13185;50.872;5.306;2022-12-07T03:31:38;16.50;;;10.90;;
25237;SDS011;13185;50.872;5.306;2022-12-07T03:34:08;15.93;;;11.53;;
25237;SDS011;13185;50.872;5.306;2022-12-07T03:39:33;16.37;;;11.50;;
25237;SDS011;13185;50.872;5.306;2022-12-07T03:42:04;13.43;;;10.77;;
25237;SDS011;13185;50.872;5.306;2022-12-07T03:44:32;14.13;;;11.40;;
25237;SDS011;13185;50.872;5.306;2022-12-07T03:47:01;15.23;;;11.30;;
25237;SDS011;13185;50.872;5.306;2022-12-07T03:52:21;17.03;;;11.87;;
25237;SDS011;13185;50.872;5.306;2022-12-07T03:55:10;16.10;;;10.80;;
25237;SDS011;13185;50.872;5.306;2022-12-07T03:57:36;16.67;;;11.40;;
25237;SDS011;13185;50.872;5.306;2022-12-07T04:00:05;14.63;;;10.97;;
25237;SDS011;13185;50.872;5.306;2022-12-07T04:02:37;15.80;;;10.97;;
25237;SDS011;13185;50.872;5.306;2022-12-07T04:05:03;17.48;;;11.23;;
25237;SDS011;13185;50.872;5.306;2022-12-07T04:07:29;16.65;;;10.77;;
25237;SDS011;13185;50.872;5.306;2022-12-07T04:09:55;14.07;;;10.73;;
25237;SDS011;13185;50.872;5.306;2022-12-07T04:12:21;15.77;;;11.18;;
25237;SDS011;13185;50.872;5.306;2022-12-07T04:14:47;14.88;;;10.45;;
25237;SDS011;13185;50.872;5.306;2022-12-07T04:17:12;13.43;;;9.80;;
25237;SDS011;13185;50.872;5.306;2022-12-07T04:19:37;14.20;;;10.47;;
25237;SDS011;13185;50.872;5.306;2022-12-07T04:22:03;13.00;;;9.93;;
25237;SDS011;13185;50.872;5.306;2022-12-07T04:24:29;11.40;;;9.00;;
25237;SDS011;13185;50.872;5.306;2022-12-07T04:26:56;12.60;;;9.33;;
25237;SDS011;13185;50.872;5.306;2022-12-07T04:29:22;12.27;;;9.63;;
25237;SDS011;13185;50.872;5.306;2022-12-07T04:31:48;10.82;;;8.43;;
25237;SDS011;13185;50.872;5.306;2022-12-07T04:34:14;16.15;;;9.15;;
25237;SDS011;13185;50.872;5.306;2022-12-07T04:36:41;11.35;;;9.27;;
25237;SDS011;13185;50.872;5.306;2022-12-07T04:39:07;14.13;;;9.13;;
25237;SDS011;13185;50.872;5.306;2022-12-07T04:41:38;11.00;;;8.85;;
25237;SDS011;13185;50.872;5.306;2022-12-07T04:44:04;14.33;;;9.93;;
25237;SDS011;13185;50.872;5.306;2022-12-07T04:46:32;11.70;;;8.47;;
25237;SDS011;13185;50.872;5.306;2022-12-07T04:48:58;12.53;;;9.60;;
25237;SDS011;13185;50.872;5.306;2022-12-07T04:51:27;14.77;;;10.00;;
25237;SDS011;13185;50.872;5.306;2022-12-07T04:53:54;14.77;;;11.20;;
25237;SDS011;13185;50.872;5.306;2022-12-07T04:56:21;16.13;;;11.20;;
25237;SDS011;13185;50.872;5.306;2022-12-07T04:58:48;13.40;;;10.60;;
25237;SDS011;13185;50.872;5.306;2022-12-07T05:01:14;15.30;;;10.47;;
25237;SDS011;13185;50.872;5.306;2022-12-07T05:03:41;17.63;;;11.07;;
25237;SDS011;13185;50.872;5.306;2022-12-07T05:06:06;15.43;;;11.47;;
25237;SDS011;13185;50.872;5.306;2022-12-07T05:08:32;14.82;;;11.02;;
25237;SDS011;13185;50.872;5.306;2022-12-07T05:10:59;15.47;;;11.40;;
25237;SDS011;13185;50.872;5.306;2022-12-07T05:13:25;15.27;;;11.37;;
25237;SDS011;13185;50.872;5.306;2022-12-07T05:15:51;17.03;;;11.13;;
25237;SDS011;13185;50.872;5.306;2022-12-07T05:18:16;14.97;;;11.30;;
25237;SDS011;13185;50.872;5.306;2022-12-07T05:20:42;15.10;;;10.80;;
25237;SDS011;13185;50.872;5.306;2022-12-07T05:23:08;16.07;;;11.50;;
25237;SDS011;13185;50.872;5.306;2022-12-07T05:25:34;15.33;;;10.83;;
25237;SDS011;13185;50.872;5.306;2022-12-07T05:27:59;17.50;;;11.10;;
25237;SDS011;13185;50.872;5.306;2022-12-07T05:30:25;16.93;;;11.57;;
25237;SDS011;13185;50.872;5.306;2022-12-07T05:32:51;14.77;;;11.13;;
25237;SDS011;13185;50.872;5.306;2022-12-07T05:35:17;20.07;;;12.10;;
25237;SDS011;13185;50.872;5.306;2022-12-07T05:37:43;17.53;;;11.53;;
25237;SDS011;13185;50.872;5.306;2022-12-07T05:40:09;15.93;;;11.67;;
25237;SDS011;13185;50.872;5.306;2022-12-07T05:42:35;16.13;;;10.55;;
25237;SDS011;13185;50.872;5.306;2022-12-07T05:45:00;14.07;;;10.90;;
25237;SDS011;13185;50.872;5.306;2022-12-07T05:47:26;18.67;;;11.43;;
25237;SDS011;13185;50.872;5.306;2022-12-07T05:49:51;15.73;;;11.10;;
25237;SDS011;13185;50.872;5.306;2022-12-07T05:52:17;15.03;;;11.90;;
25237;SDS011;13185;50.872;5.306;2022-12-07T05:54:43;14.03;;;10.97;;
25237;SDS011;13185;50.872;5.306;2022-12-07T05:57:08;15.83;;;11.20;;
25237;SDS011;13185;50.872;5.306;2022-12-07T05:59:33;15.50;;;11.03;;
25237;SDS011;13185;50.872;5.306;2022-12-07T06:02:00;16.63;;;11.10;;
25237;SDS011;13185;50.872;5.306;2022-12-07T06:04:29;18.30;;;12.27;;
25237;SDS011;13185;50.872;5.306;2022-12-07T06:06:56;19.53;;;11.63;;
25237;SDS011;13185;50.872;5.306;2022-12-07T06:09:22;15.90;;;12.13;;
25237;SDS011;13185;50.872;5.306;2022-12-07T06:11:49;17.73;;;13.00;;
25237;SDS011;13185;50.872;5.306;2022-12-07T06:14:33;14.63;;;11.00;;
25237;SDS011;13185;50.872;5.306;2022-12-07T06:16:59;16.70;;;11.90;;
25237;SDS011;13185;50.872;5.306;2022-12-07T06:19:24;15.90;;;11.73;;
25237;SDS011;13185;50.872;5.306;2022-12-07T06:21:50;15.33;;;12.00;;
25237;SDS011;13185;50.872;5.306;2022-12-07T06:24:16;15.77;;;12.03;;
25237;SDS011;13185;50.872;5.306;2022-12-07T06:26:42;16.93;;;12.30;;
25237;SDS011;13185;50.872;5.306;2022-12-07T06:29:08;15.17;;;11.37;;
25237;SDS011;13185;50.872;5.306;2022-12-07T06:31:34;15.23;;;12.17;;
25237;SDS011;13185;50.872;5.306;2022-12-07T06:34:01;14.93;;;11.43;;
25237;SDS011;13185;50.872;5.306;2022-12-07T06:36:28;16.53;;;12.50;;
25237;SDS011;13185;50.872;5.306;2022-12-07T06:38:54;17.53;;;11.20;;
25237;SDS011;13185;50.872;5.306;2022-12-07T06:41:20;14.60;;;11.53;;
25237;SDS011;13185;50.872;5.306;2022-12-07T06:43:46;15.47;;;11.80;;
25237;SDS011;13185;50.872;5.306;2022-12-07T06:46:12;17.40;;;11.83;;
25237;SDS011;13185;50.872;5.306;2022-12-07T06:48:37;16.67;;;11.90;;
25237;SDS011;13185;50.872;5.306;2022-12-07T06:51:03;16.20;;;11.63;;
25237;SDS011;13185;50.872;5.306;2022-12-07T06:53:29;16.87;;;11.80;;
25237;SDS011;13185;50.872;5.306;2022-12-07T06:55:54;18.37;;;11.53;;
25237;SDS011;13185;50.872;5.306;2022-12-07T06:58:20;17.43;;;12.07;;
25237;SDS011;13185;50.872;5.306;2022-12-07T07:00:47;15.00;;;10.93;;
25237;SDS011;13185;50.872;5.306;2022-12-07T07:03:13;14.67;;;11.23;;
25237;SDS011;13185;50.872;5.306;2022-12-07T07:05:39;15.20;;;11.53;;
25237;SDS011;13185;50.872;5.306;2022-12-07T07:08:04;20.73;;;13.67;;
25237;SDS011;13185;50.872;5.306;2022-12-07T07:10:30;17.70;;;11.88;;
25237;SDS011;13185;50.872;5.306;2022-12-07T07:12:56;19.80;;;12.57;;
25237;SDS011;13185;50.872;5.306;2022-12-07T07:15:21;16.90;;;11.37;;
25237;SDS011;13185;50.872;5.306;2022-12-07T07:17:47;17.13;;;11.83;;
25237;SDS011;13185;50.872;5.306;2022-12-07T07:20:13;18.90;;;12.70;;
25237;SDS011;13185;50.872;5.306;2022-12-07T07:22:38;16.27;;;12.03;;
25237;SDS011;13185;50.872;5.306;2022-12-07T07:25:04;18.97;;;12.70;;
25237;SDS011;13185;50.872;5.306;2022-12-07T07:27:29;15.07;;;11.33;;
25237;SDS011;13185;50.872;5.306;2022-12-07T07:29:55;15.80;;;11.73;;
25237;SDS011;13185;50.872;5.306;2022-12-07T07:32:20;16.67;;;11.87;;
25237;SDS011;13185;50.872;5.306;2022-12-07T07:34:47;16.10;;;12.37;;
25237;SDS011;13185;50.872;5.306;2022-12-07T07:37:13;17.90;;;12.17;;
25237;SDS011;13185;50.872;5.306;2022-12-07T07:39:39;18.07;;;12.67;;
25237;SDS011;13185;50.872;5.306;2022-12-07T07:42:04;15.47;;;11.23;;
25237;SDS011;13185;50.872;5.306;2022-12-07T07:44:31;18.83;;;13.13;;
25237;SDS011;13185;50.872;5.306;2022-12-07T07:46:57;14.60;;;12.17;;
25237;SDS011;13185;50.872;5.306;2022-12-07T07:49:22;16.17;;;11.73;;
25237;SDS011;13185;50.872;5.306;2022-12-07T07:51:48;15.87;;;11.03;;
25237;SDS011;13185;50.872;5.306;2022-12-07T07:54:13;15.33;;;11.50;;
25237;SDS011;13185;50.872;5.306;2022-12-07T07:56:39;16.97;;;11.90;;
25237;SDS011;13185;50.872;5.306;2022-12-07T07:59:04;16.50;;;11.37;;
25237;SDS011;13185;50.872;5.306;2022-12-07T08:01:30;17.60;;;12.93;;
25237;SDS011;13185;50.872;5.306;2022-12-07T08:03:55;15.27;;;11.50;;
25237;SDS011;13185;50.872;5.306;2022-12-07T08:06:21;18.23;;;11.93;;
25237;SDS011;13185;50.872;5.306;2022-12-07T08:08:46;18.47;;;10.77;;
25237;SDS011;13185;50.872;5.306;2022-12-07T08:11:11;13.30;;;10.70;;
25237;SDS011;13185;50.872;5.306;2022-12-07T08:13:37;16.00;;;11.33;;
25237;SDS011;13185;50.872;5.306;2022-12-07T08:16:03;15.43;;;11.43;;
25237;SDS011;13185;50.872;5.306;2022-12-07T08:18:30;14.07;;;10.70;;
25237;SDS011;13185;50.872;5.306;2022-12-07T08:20:59;15.33;;;10.93;;
25237;SDS011;13185;50.872;5.306;2022-12-07T08:23:26;16.13;;;11.07;;
25237;SDS011;13185;50.872;5.306;2022-12-07T08:25:52;18.03;;;12.07;;
25237;SDS011;13185;50.872;5.306;2022-12-07T08:28:17;18.83;;;10.87;;
25237;SDS011;13185;50.872;5.306;2022-12-07T08:30:43;15.43;;;11.50;;
25237;SDS011;13185;50.872;5.306;2022-12-07T08:33:08;16.40;;;11.07;;
25237;SDS011;13185;50.872;5.306;2022-12-07T08:35:35;17.37;;;11.33;;
25237;SDS011;13185;50.872;5.306;2022-12-07T08:38:01;16.57;;;11.10;;
25237;SDS011;13185;50.872;5.306;2022-12-07T08:40:27;20.70;;;13.00;;
25237;SDS011;13185;50.872;5.306;2022-12-07T08:42:53;19.10;;;12.20;;
25237;SDS011;13185;50.872;5.306;2022-12-07T08:45:19;19.73;;;11.63;;
25237;SDS011;13185;50.872;5.306;2022-12-07T08:47:53;17.37;;;11.43;;
25237;SDS011;13185;50.872;5.306;2022-12-07T08:50:25;19.70;;;11.77;;
25237;SDS011;13185;50.872;5.306;2022-12-07T08:52:52;17.63;;;12.93;;
25237;SDS011;13185;50.872;5.306;2022-12-07T08:55:21;18.53;;;12.17;;
25237;SDS011;13185;50.872;5.306;2022-12-07T08:57:47;18.97;;;12.27;;
25237;SDS011;13185;50.872;5.306;2022-12-07T09:00:13;15.73;;;11.43;;
25237;SDS011;13185;50.872;5.306;2022-12-07T09:02:39;22.83;;;12.50;;
25237;SDS011;13185;50.872;5.306;2022-12-07T09:05:05;16.80;;;12.10;;
25237;SDS011;13185;50.872;5.306;2022-12-07T09:07:31;17.67;;;11.80;;
25237;SDS011;13185;50.872;5.306;2022-12-07T09:09:59;15.67;;;11.77;;
25237;SDS011;13185;50.872;5.306;2022-12-07T09:12:24;16.10;;;11.97;;
25237;SDS011;13185;50.872;5.306;2022-12-07T09:14:50;16.00;;;11.77;;
25237;SDS011;13185;50.872;5.306;2022-12-07T09:17:15;18.93;;;11.60;;
25237;SDS011;13185;50.872;5.306;2022-12-07T09:19:41;15.67;;;11.20;;
25237;SDS011;13185;50.872;5.306;2022-12-07T09:22:07;20.07;;;11.93;;
25237;SDS011;13185;50.872;5.306;2022-12-07T09:24:33;19.77;;;12.10;;
25237;SDS011;13185;50.872;5.306;2022-12-07T09:27:02;16.50;;;11.30;;
25237;SDS011;13185;50.872;5.306;2022-12-07T09:29:27;18.00;;;11.67;;
25237;SDS011;13185;50.872;5.306;2022-12-07T09:31:53;17.27;;;11.63;;
25237;SDS011;13185;50.872;5.306;2022-12-07T09:34:18;16.00;;;10.30;;
25237;SDS011;13185;50.872;5.306;2022-12-07T09:36:45;17.67;;;9.98;;
25237;SDS011;13185;50.872;5.306;2022-12-07T09:39:11;15.77;;;9.23;;
25237;SDS011;13185;50.872;5.306;2022-12-07T09:41:37;15.50;;;9.43;;
25237;SDS011;13185;50.872;5.306;2022-12-07T09:44:06;13.13;;;9.03;;
25237;SDS011;13185;50.872;5.306;2022-12-07T09:46:37;15.43;;;8.97;;
25237;SDS011;13185;50.872;5.306;2022-12-07T09:49:04;15.80;;;8.20;;
25237;SDS011;13185;50.872;5.306;2022-12-07T09:51:33;15.33;;;8.90;;
25237;SDS011;13185;50.872;5.306;2022-12-07T09:53:59;15.17;;;7.83;;
25237;SDS011;13185;50.872;5.306;2022-12-07T09:56:25;15.27;;;7.90;;
25237;SDS011;13185;50.872;5.306;2022-12-07T09:58:53;17.13;;;7.60;;
25237;SDS011;13185;50.872;5.306;2022-12-07T10:01:32;14.95;;;7.32;;
25237;SDS011;13185;50.872;5.306;2022-12-07T10:04:08;9.07;;;6.73;;
25237;SDS011;13185;50.872;5.306;2022-12-07T10:06:38;13.18;;;6.75;;
25237;SDS011;13185;50.872;5.306;2022-12-07T10:09:11;11.80;;;6.47;;
25237;SDS011;13185;50.872;5.306;2022-12-07T10:14:31;13.60;;;7.47;;
25237;SDS011;13185;50.872;5.306;2022-12-07T10:16:59;14.77;;;8.43;;
25237;SDS011;13185;50.872;5.306;2022-12-07T10:21:59;13.83;;;8.20;;
25237;SDS011;13185;50.872;5.306;2022-12-07T10:24:36;15.10;;;9.15;;
25237;SDS011;13185;50.872;5.306;2022-12-07T10:27:04;15.13;;;9.33;;
25237;SDS011;13185;50.872;5.306;2022-12-07T10:34:42;18.02;;;9.30;;
25237;SDS011;13185;50.872;5.306;2022-12-07T10:39:49;20.13;;;8.55;;
25237;SDS011;13185;50.872;5.306;2022-12-07T10:42:27;12.18;;;8.15;;
25237;SDS011;13185;50.872;5.306;2022-12-07T10:45:08;14.18;;;8.27;;
25237;SDS011;13185;50.872;5.306;2022-12-07T10:56:09;11.02;;;5.82;;
25237;SDS011;13185;50.872;5.306;2022-12-07T11:01:59;13.57;;;7.22;;
25237;SDS011;13185;50.872;5.306;2022-12-07T11:08:05;12.07;;;6.57;;
25237;SDS011;13185;50.872;5.306;2022-12-07T11:10:40;14.65;;;6.30;;
25237;SDS011;13185;50.872;5.306;2022-12-07T11:18:51;12.77;;;6.13;;
25237;SDS011;13185;50.872;5.306;2022-12-07T11:21:32;11.70;;;7.00;;
25237;SDS011;13185;50.872;5.306;2022-12-07T11:24:09;16.05;;;9.30;;
25237;SDS011;13185;50.872;5.306;2022-12-07T11:32:23;11.80;;;6.75;;
25237;SDS011;13185;50.872;5.306;2022-12-07T11:35:15;12.57;;;5.65;;
25237;SDS011;13185;50.872;5.306;2022-12-07T11:37:57;12.18;;;6.03;;
25237;SDS011;13185;50.872;5.306;2022-12-07T11:40:30;11.32;;;5.97;;
25237;SDS011;13185;50.872;5.306;2022-12-07T11:43:24;14.30;;;5.50;;
25237;SDS011;13185;50.872;5.306;2022-12-07T11:45:59;11.25;;;4.97;;
25237;SDS011;13185;50.872;5.306;2022-12-07T11:48:46;10.82;;;5.03;;
25237;SDS011;13185;50.872;5.306;2022-12-07T11:51:17;11.77;;;5.07;;
25237;SDS011;13185;50.872;5.306;2022-12-07T11:53:47;9.60;;;4.75;;
25237;SDS011;13185;50.872;5.306;2022-12-07T11:56:22;9.85;;;4.80;;
25237;SDS011;13185;50.872;5.306;2022-12-07T12:04:05;9.63;;;4.60;;
25237;SDS011;13185;50.872;5.306;2022-12-07T12:06:32;7.03;;;4.45;;
25237;SDS011;13185;50.872;5.306;2022-12-07T12:14:44;8.13;;;3.77;;
25237;SDS011;13185;50.872;5.306;2022-12-07T12:25:41;6.32;;;3.25;;
25237;SDS011;13185;50.872;5.306;2022-12-07T12:33:59;7.00;;;3.75;;
25237;SDS011;13185;50.872;5.306;2022-12-07T12:54:59;6.63;;;3.20;;
25237;SDS011;13185;50.872;5.306;2022-12-07T12:57:29;7.72;;;3.08;;
25237;SDS011;13185;50.872;5.306;2022-12-07T12:59:57;8.65;;;4.03;;
25237;SDS011;13185;50.872;5.306;2022-12-07T13:02:25;5.47;;;3.13;;
25237;SDS011;13185;50.872;5.306;2022-12-07T13:17:59;3.85;;;2.05;;
25237;SDS011;13185;50.872;5.306;2022-12-07T13:20:42;5.40;;;1.67;;
25237;SDS011;13185;50.872;5.306;2022-12-07T13:23:09;6.03;;;1.88;;
25237;SDS011;13185;50.872;5.306;2022-12-07T13:25:45;8.68;;;2.40;;
25237;SDS011;13185;50.872;5.306;2022-12-07T13:28:17;5.20;;;1.38;;
25237;SDS011;13185;50.872;5.306;2022-12-07T13:30:50;3.83;;;1.10;;
25237;SDS011;13185;50.872;5.306;2022-12-07T13:33:29;2.00;;;0.98;;
25237;SDS011;13185;50.872;5.306;2022-12-07T13:35:55;3.63;;;1.27;;
25237;SDS011;13185;50.872;5.306;2022-12-07T13:40:59;2.72;;;0.95;;
25237;SDS011;13185;50.872;5.306;2022-12-07T13:43:52;4.88;;;0.90;;
25237;SDS011;13185;50.872;5.306;2022-12-07T13:46:55;4.75;;;1.30;;
25237;SDS011;13185;50.872;5.306;2022-12-07T13:49:28;3.63;;;0.98;;
25237;SDS011;13185;50.872;5.306;2022-12-07T13:51:55;6.07;;;1.30;;
25237;SDS011;13185;50.872;5.306;2022-12-07T13:55:00;2.35;;;0.73;;
25237;SDS011;13185;50.872;5.306;2022-12-07T13:57:38;3.63;;;0.90;;
25237;SDS011;13185;50.872;5.306;2022-12-07T14:00:04;3.53;;;1.10;;
25237;SDS011;13185;50.872;5.306;2022-12-07T14:02:53;7.43;;;2.42;;
25237;SDS011;13185;50.872;5.306;2022-12-07T14:05:26;5.07;;;1.23;;
25237;SDS011;13185;50.872;5.306;2022-12-07T14:07:54;5.40;;;1.42;;
25237;SDS011;13185;50.872;5.306;2022-12-07T14:13:04;8.95;;;1.88;;
25237;SDS011;13185;50.872;5.306;2022-12-07T14:16:00;7.03;;;1.80;;
25237;SDS011;13185;50.872;5.306;2022-12-07T14:18:28;3.63;;;1.83;;
25237;SDS011;13185;50.872;5.306;2022-12-07T14:23:36;7.55;;;2.42;;
25237;SDS011;13185;50.872;5.306;2022-12-07T14:28:38;5.28;;;2.30;;
25237;SDS011;13185;50.872;5.306;2022-12-07T14:31:16;5.88;;;2.00;;
25237;SDS011;13185;50.872;5.306;2022-12-07T14:33:43;7.63;;;1.90;;
25237;SDS011;13185;50.872;5.306;2022-12-07T14:36:12;5.20;;;1.38;;
25237;SDS011;13185;50.872;5.306;2022-12-07T14:38:39;5.90;;;2.05;;
25237;SDS011;13185;50.872;5.306;2022-12-07T14:41:12;3.47;;;1.40;;
25237;SDS011;13185;50.872;5.306;2022-12-07T14:43:58;5.25;;;1.20;;
25237;SDS011;13185;50.872;5.306;2022-12-07T14:46:25;6.07;;;1.40;;
25237;SDS011;13185;50.872;5.306;2022-12-07T14:48:50;6.40;;;1.92;;
25237;SDS011;13185;50.872;5.306;2022-12-07T14:51:16;3.33;;;1.52;;
25237;SDS011;13185;50.872;5.306;2022-12-07T14:53:46;4.65;;;1.67;;
25237;SDS011;13185;50.872;5.306;2022-12-07T14:56:15;4.03;;;1.73;;
25237;SDS011;13185;50.872;5.306;2022-12-07T14:58:40;4.53;;;1.70;;
25237;SDS011;13185;50.872;5.306;2022-12-07T15:01:06;7.57;;;2.10;;
25237;SDS011;13185;50.872;5.306;2022-12-07T15:03:31;13.63;;;2.45;;
25237;SDS011;13185;50.872;5.306;2022-12-07T15:05:59;6.20;;;2.00;;
25237;SDS011;13185;50.872;5.306;2022-12-07T15:08:25;10.07;;;2.88;;
25237;SDS011;13185;50.872;5.306;2022-12-07T15:10:50;9.52;;;2.00;;
25237;SDS011;13185;50.872;5.306;2022-12-07T15:13:16;9.40;;;2.60;;
25237;SDS011;13185;50.872;5.306;2022-12-07T15:16:00;7.35;;;2.60;;
25237;SDS011;13185;50.872;5.306;2022-12-07T15:18:26;6.57;;;2.45;;
25237;SDS011;13185;50.872;5.306;2022-12-07T15:20:52;15.20;;;2.47;;
25237;SDS011;13185;50.872;5.306;2022-12-07T15:23:18;8.07;;;2.92;;
25237;SDS011;13185;50.872;5.306;2022-12-07T15:25:44;8.38;;;3.20;;
25237;SDS011;13185;50.872;5.306;2022-12-07T15:28:11;10.88;;;3.10;;
25237;SDS011;13185;50.872;5.306;2022-12-07T15:30:37;7.10;;;2.58;;
25237;SDS011;13185;50.872;5.306;2022-12-07T15:33:03;4.50;;;2.08;;
25237;SDS011;13185;50.872;5.306;2022-12-07T15:35:29;6.65;;;1.90;;
25237;SDS011;13185;50.872;5.306;2022-12-07T15:37:54;3.13;;;1.88;;
25237;SDS011;13185;50.872;5.306;2022-12-07T15:40:20;4.80;;;2.42;;
25237;SDS011;13185;50.872;5.306;2022-12-07T15:42:46;5.18;;;2.13;;
25237;SDS011;13185;50.872;5.306;2022-12-07T15:45:12;4.75;;;2.63;;
25237;SDS011;13185;50.872;5.306;2022-12-07T15:47:42;5.78;;;1.88;;
25237;SDS011;13185;50.872;5.306;2022-12-07T15:50:11;5.88;;;1.80;;
25237;SDS011;13185;50.872;5.306;2022-12-07T15:52:39;6.57;;;2.10;;
25237;SDS011;13185;50.872;5.306;2022-12-07T15:55:05;5.22;;;2.05;;
25237;SDS011;13185;50.872;5.306;2022-12-07T15:57:34;2.67;;;1.75;;
25237;SDS011;13185;50.872;5.306;2022-12-07T16:00:02;3.70;;;1.77;;
25237;SDS011;13185;50.872;5.306;2022-12-07T16:02:32;7.15;;;1.65;;
25237;SDS011;13185;50.872;5.306;2022-12-07T16:04:58;4.40;;;1.60;;
25237;SDS011;13185;50.872;5.306;2022-12-07T16:07:23;2.35;;;1.38;;
25237;SDS011;13185;50.872;5.306;2022-12-07T16:09:48;2.65;;;1.83;;
25237;SDS011;13185;50.872;5.306;2022-12-07T16:12:17;2.75;;;1.58;;
25237;SDS011;13185;50.872;5.306;2022-12-07T16:14:43;5.55;;;1.90;;
25237;SDS011;13185;50.872;5.306;2022-12-07T16:17:09;3.97;;;2.20;;
25237;SDS011;13185;50.872;5.306;2022-12-07T16:19:35;3.65;;;2.10;;
25237;SDS011;13185;50.872;5.306;2022-12-07T16:22:02;3.28;;;1.80;;
25237;SDS011;13185;50.872;5.306;2022-12-07T16:24:28;3.40;;;2.17;;
25237;SDS011;13185;50.872;5.306;2022-12-07T16:26:54;3.38;;;1.98;;
25237;SDS011;13185;50.872;5.306;2022-12-07T16:29:20;3.92;;;1.92;;
25237;SDS011;13185;50.872;5.306;2022-12-07T16:31:47;4.97;;;1.98;;
25237;SDS011;13185;50.872;5.306;2022-12-07T16:34:13;5.55;;;2.20;;
25237;SDS011;13185;50.872;5.306;2022-12-07T16:36:38;6.07;;;2.30;;
25237;SDS011;13185;50.872;5.306;2022-12-07T16:39:04;3.65;;;1.90;;
25237;SDS011;13185;50.872;5.306;2022-12-07T16:41:30;4.53;;;2.10;;
25237;SDS011;13185;50.872;5.306;2022-12-07T16:43:56;2.95;;;2.35;;
25237;SDS011;13185;50.872;5.306;2022-12-07T16:46:21;4.63;;;2.22;;
25237;SDS011;13185;50.872;5.306;2022-12-07T16:48:47;3.65;;;2.30;;
25237;SDS011;13185;50.872;5.306;2022-12-07T16:51:13;5.43;;;2.22;;
25237;SDS011;13185;50.872;5.306;2022-12-07T16:53:40;6.22;;;3.00;;
25237;SDS011;13185;50.872;5.306;2022-12-07T16:56:10;6.03;;;2.38;;
25237;SDS011;13185;50.872;5.306;2022-12-07T16:58:37;7.22;;;2.97;;